Nearby METAR Reports

 

KMTN - Baltimore/Martin, Maryland, USA
Distance from station: SSE 8mi, 13km
Updated: Sat, 30-Apr-2016 2:57am EDT
Overcast
Overcast
 Wind from calm
Wind: Calm
Temperature: 50°F , 10°C
Dew Point: 46°F , 8°C
Humidity: 88%
Barometer: 30.15 inHg , 1021 hPa
Clouds: Overcast
Visibility: 10 miles , 16 km
Cloud details: Overcast 1300 ft
2016/04/30 06:57 KMTN 300657Z AUTO 00000KT 10SM OVC013 10/08 A3015 RMK AO2
KDMH - Baltimore/Dwntwn, Maryland, USA
Distance from station: SW 12mi, 19km
Updated: Sat, 30-Apr-2016 2:54am EDT

 
Temperature: 50°F , 10°C
Dew Point: 46°F , 8°C
Humidity: 88%
Barometer: 30.13 inHg , 1020.3 hPa
2016/04/30 06:54 KDMH 300654Z AUTO 10/08 A3013 RMK AO1 SLP202 T01000078
 
KBWI - Balto/Wash Intl, Maryland, USA
Distance from station: SSW 20mi, 33km
Updated: Sat, 30-Apr-2016 2:54am EDT
Mist, Overcast
Mist, Overcast
 Wind from NE
Wind: NE 7 mph , 11 km/h
Temperature: 50°F , 10°C
Wind Chill: 47°F , 8°C
Dew Point: 46°F , 8°C
Humidity: 88%
Barometer: 30.12 inHg , 1020 hPa
Summary: Mist
Clouds: Overcast
Visibility: 6 miles , 10 km
Cloud details: Overcast 800 ft
2016/04/30 06:54 KBWI 300654Z 04006KT 6SM BR OVC008 10/08 A3012 RMK AO2 SLP199 T01000083
KDMW - Carroll Cnty, Maryland, USA
Distance from station: WNW 30mi, 48km
Updated: Sat, 30-Apr-2016 2:55am EDT
Mist, Overcast
Mist, Overcast
 Wind from SE
Wind: SE 3 mph , 6 km/h
Temperature: 48°F , 9°C
Dew Point: 46°F , 8°C
Humidity: 94%
Barometer: 30.11 inHg , 1019.6 hPa
Summary: Mist
Clouds: Overcast
Visibility: 1 3/4 miles , 5 km
Cloud details: Overcast 300 ft
2016/04/30 06:55 KDMW 300655Z AUTO 13003KT 1 3/4SM BR OVC003 09/08 A3011 RMK AO2
 
KNAK - Annapolis/Naval, Maryland, USA
Distance from station: S 30mi, 48km
Updated: Sat, 30-Apr-2016 2:54am EDT
Overcast
Overcast
 
Temperature: 52°F , 11°C
Dew Point: 48°F , 9°C
Humidity: 88%
Barometer: 30.12 inHg , 1020 hPa
Clouds: Overcast
Visibility: 10 miles , 16 km
Cloud details: Overcast 1600 ft
2016/04/30 06:54 KNAK 300654Z AUTO 10SM OVC016 11/09 A3012 RMK AO2 SLP202 T01060089
KW29 - Stevensville, Maryland, USA
Distance from station: SSE 31mi, 50km
Updated: Tue, 26-Apr-2016 2:56pm EDT
NOT Current

 
Temperature: 79°F , 26°C
Dew Point: 50°F , 10°C
Humidity: 37%
Barometer: 29.68 inHg , 1005.1 hPa
Visibility: 10 miles , 16 km
2016/04/26 18:56 KW29 261856Z 10SM 26/10 A2968 RMK AO1
 
KCGS - College Park, Maryland, USA
Distance from station: SW 38mi, 61km
Updated: Sat, 30-Apr-2016 2:55am EDT
Overcast
Overcast
 Wind from E
Wind: E 3 mph , 6 km/h
Temperature: 50°F , 10°C
Dew Point: 46°F , 8°C
Humidity: 88%
Barometer: 30.12 inHg , 1020 hPa
Clouds: Overcast
Visibility: 5 miles , 8 km
Cloud details: Overcast 800 ft
2016/04/30 06:55 KCGS 300655Z AUTO 09003KT 5SM OVC008 10/08 A3012 RMK AO1
KGAI - Gaithersburg, Maryland, USA
Distance from station: WSW 40mi, 65km
Updated: Sat, 30-Apr-2016 2:55am EDT
Overcast
Overcast
 Wind from calm
Wind: Calm
Temperature: 48°F , 9°C
Dew Point: 46°F , 8°C
Humidity: 94%
Barometer: 30.16 inHg , 1021.3 hPa
Clouds: Overcast
Visibility: 1 1/2 miles , 2 km
Cloud details: Overcast 300 ft
2016/04/30 06:55 KGAI 300655Z AUTO 00000KT 1 1/2SM OVC003 09/08 A3016 RMK AO1
 
KTHV - York, Pennsylvania, USA
Distance from station: NNW 40mi, 65km
Updated: Sat, 30-Apr-2016 3:00am EDT
Mist, Overcast
Mist, Overcast
 Wind from ENE
Wind: ENE 5 mph , 7 km/h
Temperature: 46°F , 8°C
Wind Chill: 44°F , 7°C
Dew Point: 46°F , 8°C
Humidity: 100%
Barometer: 30.12 inHg , 1020 hPa
Summary: Mist
Clouds: Overcast
Visibility: 2 miles , 3 km
Cloud details: Overcast 500 ft
2016/04/30 07:00 KTHV 300700Z AUTO 06004KT 2SM BR OVC005 08/08 A3012 RMK AO2 CIG 003V008 T00830078
KFDK - Frederick, Maryland, USA
Distance from station: W 47mi, 75km
Updated: Sat, 30-Apr-2016 2:55am EDT
Mist, Overcast
Mist, Overcast
 Wind from calm
Wind: Calm
Temperature: 50°F , 10°C
Dew Point: 50°F , 10°C
Humidity: 100%
Barometer: 30.15 inHg , 1021 hPa
Summary: Mist
Clouds: Overcast
Visibility: 3 miles , 5 km
Cloud details: Overcast 800 ft
2016/04/30 06:55 KFDK 300655Z AUTO 00000KT 3SM BR OVC008 10/10 A3015 RMK AO2
 
KESN - Easton/Newnam, Maryland, USA
Distance from station: SSE 48mi, 78km
Updated: Sat, 30-Apr-2016 2:59am EDT
Overcast
Overcast
 Wind from ENE
Wind: ENE 3 mph , 6 km/h
Barometer: 30.15 inHg , 1021 hPa
Clouds: Overcast
Visibility: 10 miles , 16 km
Cloud details: Mostly cloudy 800 ft
Mostly cloudy 4900 ft
Overcast 7000 ft
2016/04/30 06:59 KESN 300659Z AUTO 06003KT 10SM BKN008 BKN049 OVC070 A3015 RMK AO2
KDCA - Washington/Natl, Washington D.c., USA
Distance from station: SW 49mi, 79km
Updated: Sat, 30-Apr-2016 2:52am EDT
Overcast
Overcast
 Wind from ENE
Wind: ENE 8 mph , 13 km/h
Temperature: 52°F , 11°C
Dew Point: 50°F , 10°C
Humidity: 94%
Barometer: 30.13 inHg , 1020.3 hPa
Clouds: Overcast
Visibility: 10 miles , 16 km
Cloud details: Overcast 600 ft
2016/04/30 06:52 KDCA 300652Z 06007KT 10SM OVC006 11/10 A3013 RMK AO2 SLP203 T01110100
 
KLNS - Lancaster, Pennsylvania, USA
Distance from station: N 49mi, 79km
Updated: Sat, 30-Apr-2016 2:53am EDT
Overcast
Overcast
 Wind from ENE
Wind: ENE 6 mph , 9 km/h
Temperature: 45°F , 7°C
Wind Chill: 42°F , 6°C
Dew Point: 43°F , 6°C
Humidity: 93%
Barometer: 30.14 inHg , 1020.7 hPa
Clouds: Overcast
Visibility: 10 miles , 16 km
Cloud details: Overcast 2100 ft
2016/04/30 06:53 KLNS 300653Z AUTO 06005KT 10SM OVC021 07/06 A3014 RMK AO2 SLP208 T00670056
KILG - Wilmington, Delaware, USA
Distance from station: ENE 50mi, 81km
Updated: Sat, 30-Apr-2016 2:51am EDT
Overcast
Overcast
 Wind from NNE
Wind: NNE 7 mph , 11 km/h
Temperature: 46°F , 8°C
Wind Chill: 42°F , 6°C
Dew Point: 43°F , 6°C
Humidity: 87%
Barometer: 30.14 inHg , 1020.7 hPa
Clouds: Overcast
Visibility: 10 miles , 16 km
Cloud details: Overcast 2100 ft
2016/04/30 06:51 KILG 300651Z AUTO 03006KT 10SM OVC021 08/06 A3014 RMK AO2 SLP206 T00830056